Taunton 2W

41° 53' 56"N, 71° 08' 19"W, Elevation 50 ft.
Eastern Time

Hourly observations for the last 72 hours

Date Time Temperature (°F) Humi-
dity

(%)
Wind
(mph)
Pressure Rain (in) Sun
(W/m2)
UV ET
(in)
Air Dew 6 Hour 1 Hr 3 Hr 6 Hr Day
Alt
(in)
Sea
Level

(mb)
Max Min
30 10:00 56.0 34.4 44 E 3 G 10 30.26 1024.7 0.00 731 4.2 0.041
30 09:00 55.9 34.3 44 NE 6 G 13 30.26 1024.7 0.00 582 2.5 0.029
30 08:00 54.1 33.8 61.2 52.7 46 NNE 7 G 13 30.25 1024.5 0.00 390 1.1 0.021
30 07:00 54.0 37.3 53 NNW 7 G 15 30.21 1023.2 0.00 185 0.0 0.017
30 06:00 53.7 38.4 56 N 5 G 8 30.17 1021.9 0.00 18 0.0 0.015
30 05:00 52.9 42.6 68 N 3 G 4 30.15 1021.0 0.00 0 0.0 0.013
30 04:00 56.9 42.7 59 N 3 G 7 30.13 1020.2 0.00 0 0.0 0.010
30 03:00 59.2 42.1 53 NNW 5 G 13 30.11 1019.6 0.00 0 0.0 0.007
30 02:00 61.1 41.3 73.0 61.1 48 WNW 8 G 13 30.09 1019.0 0.00 0 0.0 0.003
30 01:00 62.5 43.1 49 WNW 5 G 12 30.06 1017.9 0.00 0 0.0 0.000
30 00:00 64.7 45.6 50 W 6 G 15 30.02 1016.8 0.00 0 0.0 0.189
29 23:00 67.1 48.9 52 WNW 5 G 16 30.00 1016.0 0.00 0 0.0 0.185
29 22:00 69.4 51.5 53 W 9 G 19 29.99 1015.6 0.00 0 0.0 0.181
29 21:00 70.5 53.1 54 WNW 7 G 19 29.96 1014.7 0.00 0 0.0 0.176
29 20:00 73.0 55.4 86.2 72.9 54 WNW 9 G 19 29.92 1013.4 0.00 0 0.0 0.171
29 19:00 77.3 57.2 50 NW 10 G 21 29.89 1012.3 0.00 65 0.0 0.162
29 18:00 82.1 58.7 45 WNW 14 G 24 29.87 1011.5 0.00 120 0.0 0.147
29 17:00 83.4 60.5 46 WNW 11 G 20 29.83 1010.3 0.00 155 1.0 0.130
29 16:00 84.3 62.5 48 SW 9 G 17 29.80 1009.3 0.00 304 2.5 0.112
29 15:00 83.1 66.8 58 SSW 8 G 15 29.81 1009.4 0.00 795 5.0 0.094
29 14:00 80.0 66.3 80.0 63.0 63 SSW 5 G 12 29.82 1010.0 0.00 406 4.6 0.079
29 13:00 77.5 64.4 64 S 10 G 14 29.86 1011.1 0.00 427 5.8 0.058
29 12:00 78.2 63.2 60 SSE 8 G 15 29.90 1012.5 0.00 512 4.8 0.042
29 11:00 76.4 60.6 58 S 8 G 13 29.94 1013.8 0.00 721 5.5 0.025
29 10:00 74.3 58.6 58 S 4 G 9 29.95 1014.2 0.00 520 3.7 0.014
29 09:00 71.0 56.9 61 SW 3 G 5 29.94 1014.0 0.00 316 1.9 0.005
29 08:00 63.0 55.3 63.1 55.7 76 S 3 G 10 29.97 1015.0 0.00 100 0.5 0.002
29 07:00 56.9 54.6 92 Calm 29.95 1014.3 0.00 69 0.0 0.001
29 06:00 56.0 53.7 92 SSW 0 G 2 29.95 1014.1 0.00 11 0.0 0.001
29 05:00 58.1 54.6 88 SSW 1 G 3 29.99 1015.6 0.00 0 0.0 0.001
29 04:00 57.7 54.5 89 S 0 G 3 29.99 1015.5 0.00 0 0.0 0.001
29 03:00 58.0 54.8 89 S 2 G 4 29.99 1015.5 0.00 0 0.0 0.001
29 02:00 56.6 54.9 68.3 55.8 94 S 3 G 4 29.99 1015.7 0.00 0 0.0 0.001
29 01:00 56.9 54.0 90 S 2 G 2 30.00 1016.1 0.00 0 0.0 0.000
29 00:00 60.0 55.5 85 SSW 2 G 3 29.99 1015.7 0.00 0 0.0 0.158
28 23:00 61.7 56.8 84 S 3 G 4 30.00 1015.9 0.00 0 0.0 0.157
28 22:00 63.7 58.4 83 SSW 4 G 10 30.00 1016.0 0.00 0 0.0 0.156
28 21:00 65.8 59.5 80 S 4 G 9 29.98 1015.4 0.00 0 0.0 0.155
28 20:00 68.3 59.3 79.6 68.3 73 S 1 G 5 29.95 1014.3 0.00 0 0.0 0.153
28 19:00 72.3 61.2 68 S 6 G 11 29.93 1013.7 0.00 39 0.0 0.148
28 18:00 77.5 63.5 62 SSW 8 G 14 29.93 1013.6 0.00 229 0.5 0.138
28 17:00 78.2 63.7 61 SSW 5 G 13 29.92 1013.1 0.00 204 1.1 0.123
28 16:00 79.0 66.2 65 S 8 G 13 29.92 1013.4 0.00 596 3.1 0.104
28 15:00 78.7 64.6 62 SW 7 G 14 29.92 1013.4 0.00 744 4.8 0.082
28 14:00 76.3 65.0 76.9 57.8 68 S 6 G 15 29.94 1014.1 0.00 844 6.2 0.062
28 13:00 74.4 64.4 71 S 4 G 11 29.93 1013.7 0.00 889 7.6 0.044
28 12:00 70.0 62.8 78 SSW 4 G 9 29.96 1014.5 0.00 420 4.1 0.026
28 11:00 66.9 61.6 83 SW 6 G 11 29.96 1014.5 0.00 905 5.0 0.010
28 10:00 60.6 58.3 92 S 4 G 10 29.94 1014.0 0.00 626 3.4 0.004
28 09:00 58.0 56.9 96 S 3 G 7 29.94 1014.1 0.00 33 0.0 0.002
28 08:00 58.2 57.4 58.3 56.9 97 S 2 G 9 29.94 1013.9 0.00 65 0.0 0.001
28 07:00 58.1 57.5 98 S 1 G 5 29.93 1013.7 0.00 9 0.0 0.000
28 06:00 57.7 56.9 97 SE 4 G 7 29.92 1013.1 0.00 11 0.0 0.000
28 05:00 57.5 56.7 97 SE 3 G 4 29.91 1012.9 0.00 0 0.0 0.000
28 04:00 57.3 56.2 96 SE 1 G 3 29.92 1013.1 0.00 0 0.0 0.000
28 03:00 57.1 55.7 95 ESE 2 G 9 29.92 1013.1 0.00 0 0.0 0.000
28 02:00 56.9 55.8 59.0 56.3 96 SSE 3 G 10 29.92 1013.2 0.00 0 0.0 0.000
28 01:00 56.6 55.2 95 SSE 3 G 6 29.93 1013.7 0.00 0 0.0 0.000
28 00:00 56.4 54.7 94 S 3 G 6 29.93 1013.7 0.00 0 0.0 0.085
27 23:00 56.7 54.7 93 S 2 G 6 29.93 1013.7 0.00 0 0.0 0.085
27 22:00 57.6 55.3 92 S 3 G 9 29.94 1013.9 0.00 0 0.0 0.085
27 21:00 58.5 55.9 91 S 4 G 10 29.94 1013.9 0.00 0 0.0 0.084
27 20:00 59.0 55.8 69.4 59.0 89 S 6 G 11 29.92 1013.2 0.00 0 0.0 0.083
27 19:00 62.8 57.6 83 S 7 G 12 29.90 1012.5 0.00 39 0.0 0.081
27 18:00 66.3 59.2 78 SE 5 G 8 29.88 1011.9 0.00 53 0.0 0.077
27 17:00 67.7 60.2 77 SSW 0 G 6 29.89 1012.1 0.00 448 1.8 0.067
27 16:00 66.9 60.5 80 SSE 5 G 10 29.89 1012.1 0.00 380 2.4 0.059
27 15:00 69.2 62.4 79 S 5 G 9 29.89 1012.3 0.00 916 5.8 0.044
27 14:00 65.8 60.8 66.3 53.3 84 ESE 4 G 10 29.91 1012.7 0.00 485 4.1 0.034
27 13:00 65.1 60.1 84 ESE 5 G 11 29.90 1012.4 0.00 640 8.1 0.018
27 12:00 60.7 57.8 90 E 4 G 7 29.91 1013.0 0.00 515 4.4 0.010
27 11:00 57.8 56.1 94 NNW 1 G 4 29.92 1013.2 0.00 304 2.4 0.005

Data generated by WxSolution Version 1.9.0.7, Build 2017.01.18.